Time;durP1;ratioP1;P1;durP2;ratioP2;P2;SDS_P1;SDS_P2;PMS_P1;PMS_P2;Temp;Humidity;BMP_temperature;BMP_pressure;BME280_temperature;BME280_humidity;BME280_pressure;Samples;Min_cycle;Max_cycle;Signal;HPM_P1;HPM_P2
2023/06/12 00:02:17;;;;;;;8.38;7.50;;;;;;;19.87;51.34;98938.88;5021439;28;21059;-81
2023/06/12 00:04:44;;;;;;;10.57;8.07;;;;;;;19.94;51.02;98933.03;5006868;28;20057;-80
2023/06/12 00:07:10;;;;;;;10.23;8.20;;;;;;;20.01;51.06;98946.91;5007540;28;20087;-81
2023/06/12 00:09:36;;;;;;;9.27;7.90;;;;;;;19.94;50.98;98944.63;5011056;28;20482;-81
2023/06/12 00:12:01;;;;;;;11.80;7.60;;;;;;;19.96;51.17;98936.22;5007792;28;20560;-80
2023/06/12 00:14:27;;;;;;;8.68;7.75;;;;;;;19.85;51.25;98938.38;5009508;28;20124;-81
2023/06/12 00:16:52;;;;;;;10.45;8.55;;;;;;;19.14;53.39;98941.78;4994159;28;20084;-80
2023/06/12 00:19:18;;;;;;;11.85;7.90;;;;;;;19.09;53.03;98951.91;5013472;28;20057;-80
2023/06/12 00:21:44;;;;;;;9.38;7.78;;;;;;;19.67;51.78;98946.66;5012861;28;20025;-81
2023/06/12 00:24:09;;;;;;;8.30;7.50;;;;;;;19.76;51.78;98950.22;5015946;28;20389;-81
2023/06/12 00:26:35;;;;;;;9.13;8.18;;;;;;;19.67;51.64;98952.88;5007736;28;20057;-81
2023/06/12 00:29:01;;;;;;;10.48;7.43;;;;;;;19.50;51.67;98938.38;5007227;28;20037;-81
2023/06/12 00:31:26;;;;;;;8.23;7.53;;;;;;;19.37;52.27;98934.59;5007142;28;20026;-81
2023/06/12 00:33:52;;;;;;;10.82;8.38;;;;;;;19.50;52.02;98952.72;5009707;28;20026;-81
2023/06/12 00:36:17;;;;;;;9.95;7.53;;;;;;;19.60;52.08;98959.78;5024153;28;20048;-81
2023/06/12 00:38:42;;;;;;;8.10;7.13;;;;;;;19.56;51.75;98954.19;5007456;28;20092;-80
2023/06/12 00:41:08;;;;;;;9.55;7.72;;;;;;;19.48;52.26;98948.69;4992738;28;20033;-81
2023/06/12 00:43:33;;;;;;;9.95;7.95;;;;;;;19.34;52.50;98949.53;5009691;28;20100;-81
2023/06/12 00:45:59;;;;;;;7.75;6.95;;;;;;;19.24;52.50;98940.78;5003170;28;20056;-81
2023/06/12 00:48:25;;;;;;;9.18;7.95;;;;;;;19.28;52.36;98939.06;5008560;28;20030;-81
2023/06/12 00:50:52;;;;;;;9.07;7.15;;;;;;;19.32;52.26;98940.88;5004774;28;20029;-80
2023/06/12 00:53:18;;;;;;;10.75;7.55;;;;;;;18.67;55.10;98936.75;5009072;28;20160;-81
2023/06/12 00:55:43;;;;;;;8.43;7.40;;;;;;;18.96;52.98;98944.59;5007624;28;20026;-80
2023/06/12 00:58:09;;;;;;;10.10;8.07;;;;;;;18.79;53.80;98933.56;5006646;28;20796;-80
2023/06/12 01:00:38;;;;;;;8.30;7.32;;;;;;;18.96;53.27;98934.56;5006953;28;20038;-80
2023/06/12 01:03:06;;;;;;;8.27;7.47;;;;;;;19.10;52.96;98943.50;5000029;28;20022;-81
2023/06/12 01:05:36;;;;;;;9.40;7.20;;;;;;;19.21;52.96;98947.59;5004388;28;20224;-81
2023/06/12 01:08:24;;;;;;;9.30;8.02;;;;;;;19.21;52.86;98942.19;5006180;28;20045;-81
2023/06/12 01:10:57;;;;;;;10.32;7.93;;;;;;;19.19;52.21;98943.59;5017862;28;20038;-81
2023/06/12 01:13:23;;;;;;;9.27;8.27;;;;;;;18.96;53.41;98944.59;5008373;28;20030;-81
2023/06/12 01:15:49;;;;;;;9.90;7.47;;;;;;;18.95;52.89;98932.16;5005129;28;20116;-81
2023/06/12 01:18:21;;;;;;;8.57;7.20;;;;;;;18.95;53.24;98932.16;5002811;28;20030;-80
2023/06/12 01:20:53;;;;;;;11.02;7.60;;;;;;;19.03;53.09;98943.09;4996958;28;20057;-81
2023/06/12 01:23:37;;;;;;;9.82;8.00;;;;;;;18.90;53.38;98949.28;4996811;28;20030;-81
2023/06/12 01:26:08;;;;;;;9.57;7.32;;;;;;;18.85;53.09;98954.78;5004212;28;20399;-80
2023/06/12 01:29:06;;;;;;;9.00;7.50;;;;;;;18.76;53.07;98948.50;4995171;28;20390;-80
2023/06/12 01:31:43;;;;;;;13.00;9.05;;;;;;;18.62;53.63;98955.78;4995759;28;20026;-80
2023/06/12 01:34:20;;;;;;;9.15;6.97;;;;;;;18.72;53.44;98958.28;4997839;28;20088;-81
2023/06/12 01:36:53;;;;;;;9.70;7.80;;;;;;;18.57;53.30;98943.16;4996305;28;20363;-81
2023/06/12 01:39:20;;;;;;;10.40;8.10;;;;;;;18.33;54.43;98933.53;4997471;28;20038;-80
2023/06/12 01:41:46;;;;;;;10.32;7.65;;;;;;;18.58;53.69;98944.78;4998767;28;20026;-80
2023/06/12 01:44:11;;;;;;;11.18;8.32;;;;;;;18.47;53.63;98937.13;4983450;28;20026;-80
2023/06/12 01:46:37;;;;;;;9.80;7.63;;;;;;;18.24;54.72;98943.44;5002684;28;20087;-80
2023/06/12 01:49:04;;;;;;;9.70;8.70;;;;;;;18.43;54.38;98952.31;5004869;28;20034;-80
2023/06/12 01:51:30;;;;;;;9.38;8.30;;;;;;;18.48;54.02;98936.81;5003282;28;20030;-80
2023/06/12 01:53:55;;;;;;;10.05;8.13;;;;;;;17.96;55.33;98946.03;5001279;28;20037;-80
2023/06/12 01:56:25;;;;;;;9.20;8.23;;;;;;;17.71;56.18;98948.31;5004648;28;20080;-80
2023/06/12 01:58:51;;;;;;;8.85;7.95;;;;;;;18.14;54.70;98935.50;5004348;28;20469;-80
2023/06/12 02:01:17;;;;;;;10.10;8.02;;;;;;;18.22;54.49;98942.91;5010586;28;20032;-80
2023/06/12 02:03:45;;;;;;;11.65;7.82;;;;;;;18.23;54.75;98936.44;5005980;28;20034;-80
2023/06/12 02:06:15;;;;;;;8.63;7.38;;;;;;;18.20;54.31;98931.59;5005342;28;20033;-80
2023/06/12 02:08:41;;;;;;;10.00;8.43;;;;;;;18.32;54.31;98940.88;5007670;28;20030;-81
2023/06/12 02:11:06;;;;;;;9.25;8.23;;;;;;;18.29;54.75;98946.84;5012926;28;20083;-80
2023/06/12 02:13:31;;;;;;;10.27;8.18;;;;;;;17.03;59.23;98950.53;5006949;28;20033;-80
2023/06/12 02:15:57;;;;;;;13.80;9.20;;;;;;;16.31;61.13;98957.72;5012043;28;20045;-80
2023/06/12 02:18:22;;;;;;;10.68;8.90;;;;;;;16.08;61.24;98963.81;4997652;28;20640;-80
2023/06/12 02:20:49;;;;;;;11.20;9.00;;;;;;;16.43;59.31;98951.94;4977411;28;20636;-80
2023/06/12 02:23:15;;;;;;;10.25;8.48;;;;;;;17.44;56.63;98959.72;4979578;28;20120;-80
2023/06/12 02:25:40;;;;;;;11.45;8.77;;;;;;;17.71;56.26;98948.31;5010246;28;20148;-80
2023/06/12 02:28:07;;;;;;;10.10;7.90;;;;;;;17.87;55.24;98950.50;5012877;28;20030;-81
2023/06/12 02:30:32;;;;;;;12.63;9.00;;;;;;;16.76;59.49;98961.06;5012172;28;20034;-80
2023/06/12 02:32:58;;;;;;;13.13;9.43;;;;;;;16.01;61.65;98968.69;5007446;28;20042;-80
2023/06/12 02:35:23;;;;;;;11.75;9.25;;;;;;;16.66;59.22;98958.50;5005997;28;20029;-79
2023/06/12 02:37:48;;;;;;;11.05;8.48;;;;;;;17.37;56.91;98967.38;4991182;28;20120;-79
2023/06/12 02:40:14;;;;;;;10.10;8.60;;;;;;;17.61;56.22;98957.34;5008386;28;20038;-80
2023/06/12 02:42:39;;;;;;;10.18;9.05;;;;;;;17.89;55.63;98969.91;5011454;28;20433;-80
2023/06/12 02:45:05;;;;;;;10.15;8.27;;;;;;;17.85;55.76;98966.19;5011746;28;20447;-80
2023/06/12 02:47:31;;;;;;;10.75;8.63;;;;;;;17.71;55.82;98956.44;4999851;28;20038;-80
2023/06/12 02:49:56;;;;;;;9.70;8.27;;;;;;;17.80;55.62;98965.47;4989359;28;20662;-79
2023/06/12 02:52:22;;;;;;;9.73;8.27;;;;;;;18.06;55.30;98982.09;5006009;28;20056;-80
2023/06/12 02:54:47;;;;;;;12.70;9.48;;;;;;;17.55;57.04;98974.72;5001383;28;20040;-79
2023/06/12 02:57:12;;;;;;;13.88;8.73;;;;;;;17.71;56.25;98975.31;5004685;28;20042;-79
2023/06/12 02:59:38;;;;;;;13.98;9.95;;;;;;;16.80;59.32;98975.56;5006910;28;21539;-79
2023/06/12 03:02:03;;;;;;;11.20;8.30;;;;;;;17.43;56.57;98977.00;4983071;28;20505;-80
2023/06/12 03:04:29;;;;;;;12.68;8.77;;;;;;;17.64;56.51;98972.19;5007661;28;20592;-79
2023/06/12 03:06:55;;;;;;;12.52;10.07;;;;;;;17.38;57.89;98978.97;5003239;28;20066;-80
2023/06/12 03:09:22;;;;;;;10.75;8.68;;;;;;;17.25;57.35;98962.38;4994196;28;20026;-80
2023/06/12 03:11:50;;;;;;;12.15;9.45;;;;;;;17.51;56.46;98973.69;5004623;28;20030;-80
2023/06/12 03:14:17;;;;;;;10.63;9.52;;;;;;;17.16;57.54;98969.53;5003714;28;20076;-79
2023/06/12 03:16:42;;;;;;;10.05;8.38;;;;;;;17.61;56.90;98973.56;5001874;28;20088;-79
2023/06/12 03:19:08;;;;;;;10.13;8.80;;;;;;;17.60;56.67;98966.56;5002321;28;20029;-79
2023/06/12 03:21:33;;;;;;;12.05;9.13;;;;;;;17.73;56.62;98959.63;5006324;28;20117;-79
2023/06/12 03:23:59;;;;;;;13.27;8.75;;;;;;;17.40;57.28;98971.38;4970036;28;20034;-79
2023/06/12 03:26:27;;;;;;;9.55;8.40;;;;;;;17.57;57.13;98983.34;4999313;28;20045;-79
2023/06/12 03:28:53;;;;;;;17.85;9.55;;;;;;;17.04;58.14;98979.09;5013418;28;20052;-80
2023/06/12 03:31:18;;;;;;;10.40;9.00;;;;;;;17.49;57.42;98980.44;4986703;28;20490;-82
2023/06/12 03:33:44;;;;;;;13.15;10.07;;;;;;;17.05;59.40;98986.09;5007435;28;20030;-79
2023/06/12 03:36:11;;;;;;;14.57;10.52;;;;;;;17.17;59.28;98983.78;5003607;28;20093;-80
2023/06/12 03:38:36;;;;;;;10.80;9.27;;;;;;;16.94;58.78;98990.00;5006172;28;20462;-80
2023/06/12 03:41:01;;;;;;;10.50;8.88;;;;;;;17.34;58.12;98989.56;4986013;28;20155;-80
2023/06/12 03:43:27;;;;;;;16.30;10.05;;;;;;;16.94;60.57;98993.50;5009214;28;21600;-80
2023/06/12 03:45:52;;;;;;;13.48;9.20;;;;;;;16.69;59.46;98996.44;5003287;28;20033;-79
2023/06/12 03:48:18;;;;;;;12.57;10.23;;;;;;;16.57;60.55;98993.34;5000559;28;20042;-80
2023/06/12 03:50:43;;;;;;;9.77;8.80;;;;;;;17.11;58.02;98993.03;5011723;28;20034;-81
2023/06/12 03:53:08;;;;;;;11.13;9.35;;;;;;;17.17;58.26;98990.00;5008205;28;20394;-81
2023/06/12 03:55:34;;;;;;;11.98;10.70;;;;;;;16.33;63.37;99004.03;4976602;28;20038;-79
2023/06/12 03:58:00;;;;;;;14.45;10.80;;;;;;;16.10;63.78;99006.59;4993908;28;20052;-79
2023/06/12 04:00:26;;;;;;;11.93;10.73;;;;;;;15.50;67.07;99005.91;4986553;28;20421;-80
2023/06/12 04:02:53;;;;;;;14.43;10.98;;;;;;;15.32;67.83;99008.34;5004856;28;20029;-81
2023/06/12 04:05:20;;;;;;;13.98;10.52;;;;;;;15.32;67.84;99008.34;5004639;28;20064;-80
2023/06/12 04:07:46;;;;;;;12.80;9.45;;;;;;;15.49;66.07;99000.78;5004676;28;20522;-80
2023/06/12 04:10:11;;;;;;;13.95;10.73;;;;;;;16.22;63.55;98994.41;5003623;28;20079;-81
2023/06/12 04:12:37;;;;;;;12.40;10.25;;;;;;;15.92;66.93;99009.97;4968181;28;20124;-81
2023/06/12 04:15:04;;;;;;;11.40;10.30;;;;;;;15.78;68.14;99015.16;4990578;28;20057;-81
2023/06/12 04:17:29;;;;;;;14.20;10.90;;;;;;;15.47;68.82;99011.81;4996164;28;20451;-81
2023/06/12 04:19:56;;;;;;;13.15;10.00;;;;;;;15.38;69.45;99018.81;5004012;28;20084;-81
2023/06/12 04:22:25;;;;;;;12.95;10.73;;;;;;;15.24;69.48;99001.66;4969324;28;20025;-81
2023/06/12 04:24:52;;;;;;;13.85;10.70;;;;;;;15.26;70.29;99012.97;5004928;28;20083;-80
2023/06/12 04:27:17;;;;;;;15.20;10.98;;;;;;;15.25;69.56;98994.38;4986530;28;20482;-80
2023/06/12 04:29:43;;;;;;;13.05;10.95;;;;;;;15.66;68.53;99023.56;5001597;28;20084;-80
2023/06/12 04:32:09;;;;;;;14.73;10.23;;;;;;;15.93;67.94;99014.25;5009649;28;20045;-81
2023/06/12 04:34:43;;;;;;;11.30;9.43;;;;;;;16.14;67.92;99021.91;5002570;28;20038;-81
2023/06/12 04:37:13;;;;;;;14.70;9.63;;;;;;;16.56;64.58;99020.53;4999214;28;20030;-81
2023/06/12 04:39:40;;;;;;;13.32;11.27;;;;;;;16.63;67.02;99029.13;4997456;28;20022;-81
2023/06/12 04:42:07;;;;;;;20.58;11.40;;;;;;;16.64;66.62;99011.88;5005483;28;20026;-81
2023/06/12 04:44:34;;;;;;;13.10;10.07;;;;;;;16.88;66.18;99020.81;4999428;28;20030;-81
2023/06/12 04:47:02;;;;;;;14.50;10.70;;;;;;;16.92;66.35;99019.16;5001139;28;20040;-82
2023/06/12 04:49:27;;;;;;;15.90;10.68;;;;;;;17.02;66.68;99014.44;5005482;28;20030;-81
2023/06/12 04:51:53;;;;;;;12.38;10.88;;;;;;;17.14;66.35;99011.38;5002837;28;20064;-82
2023/06/12 04:54:19;;;;;;;14.35;10.35;;;;;;;17.34;65.38;99011.13;4999947;28;20041;-82
2023/06/12 04:56:44;;;;;;;11.90;10.05;;;;;;;17.58;65.24;99016.53;5001009;28;20073;-82
2023/06/12 04:59:10;;;;;;;13.05;9.95;;;;;;;17.63;64.63;99001.06;4997158;28;20057;-81
2023/06/12 05:01:36;;;;;;;17.23;10.75;;;;;;;17.81;64.07;99004.88;5001301;28;20405;-82
2023/06/12 05:04:01;;;;;;;12.18;9.68;;;;;;;17.89;65.28;99012.31;5003474;28;20033;-81
2023/06/12 05:06:28;;;;;;;11.65;9.48;;;;;;;18.37;61.96;99011.03;5003012;28;20030;-79
2023/06/12 05:08:54;;;;;;;13.43;10.80;;;;;;;18.50;62.91;99010.31;5002608;28;20037;-79
2023/06/12 05:11:20;;;;;;;11.88;10.13;;;;;;;18.33;64.55;98999.22;5004697;28;20037;-79
2023/06/12 05:13:46;;;;;;;13.57;10.25;;;;;;;18.27;66.03;99015.81;5002978;28;20128;-79
2023/06/12 05:16:11;;;;;;;13.45;9.88;;;;;;;18.34;65.46;99022.44;4999254;28;20665;-79
2023/06/12 05:18:36;;;;;;;12.52;11.23;;;;;;;18.20;65.67;99016.19;4986242;28;20087;-80
2023/06/12 05:21:03;;;;;;;13.18;10.77;;;;;;;18.17;65.47;99018.69;4974166;28;20120;-79
2023/06/12 05:23:28;;;;;;;15.40;11.02;;;;;;;18.03;65.01;99028.59;5010553;28;20037;-80
2023/06/12 05:25:54;;;;;;;12.88;11.40;;;;;;;17.83;64.95;99033.19;5007153;28;20026;-79
2023/06/12 05:28:20;;;;;;;12.93;10.63;;;;;;;17.70;64.87;99031.22;5003589;28;20037;-79
2023/06/12 05:30:47;;;;;;;13.70;10.90;;;;;;;17.73;64.85;99036.03;5005557;28;20034;-79
2023/06/12 05:33:12;;;;;;;15.40;11.60;;;;;;;17.83;64.66;99037.78;5006863;28;20073;-79
2023/06/12 05:35:38;;;;;;;14.85;10.60;;;;;;;18.06;64.39;99041.53;5003769;28;20063;-80
2023/06/12 05:38:03;;;;;;;14.50;10.32;;;;;;;18.32;64.22;99034.66;5002104;28;20043;-80
2023/06/12 05:40:29;;;;;;;16.88;10.18;;;;;;;19.35;59.11;99032.31;4969651;28;20486;-79
2023/06/12 05:42:59;;;;;;;13.68;9.68;;;;;;;19.47;58.74;99033.72;4998151;28;20074;-80
2023/06/12 05:45:24;;;;;;;13.38;9.77;;;;;;;19.67;58.50;99036.00;4991139;28;20116;-80
2023/06/12 05:47:50;;;;;;;11.57;9.50;;;;;;;19.44;59.42;99037.81;5004356;28;20109;-80
2023/06/12 05:50:15;;;;;;;11.23;10.05;;;;;;;19.72;59.58;99036.72;4985978;28;20482;-80
2023/06/12 05:52:41;;;;;;;10.70;9.63;;;;;;;20.05;56.99;99042.78;4991800;28;20034;-80
2023/06/12 05:55:07;;;;;;;11.70;9.52;;;;;;;20.12;56.54;99040.44;5004930;28;20034;-80
2023/06/12 05:57:34;;;;;;;11.15;10.02;;;;;;;20.49;55.27;99023.84;4986453;28;20437;-80
2023/06/12 05:59:59;;;;;;;9.85;8.85;;;;;;;20.58;55.19;99035.56;4978358;28;20033;-80
2023/06/12 06:02:25;;;;;;;11.30;9.32;;;;;;;20.61;55.02;99029.53;5009484;28;20041;-80
2023/06/12 06:04:53;;;;;;;12.75;9.80;;;;;;;20.58;55.14;99030.13;5006663;28;20087;-80
2023/06/12 06:07:19;;;;;;;12.48;10.15;;;;;;;20.48;57.33;99035.81;5007711;28;20401;-80
2023/06/12 06:09:45;;;;;;;11.32;9.82;;;;;;;20.33;56.21;99027.25;5008247;28;20172;-79
2023/06/12 06:12:11;;;;;;;16.40;10.07;;;;;;;20.63;54.98;99042.78;5009346;28;20688;-80
2023/06/12 06:14:36;;;;;;;12.93;9.90;;;;;;;20.58;55.31;99040.19;5002354;28;20076;-80
2023/06/12 06:17:02;;;;;;;11.60;10.38;;;;;;;20.18;57.02;99039.22;4991428;28;20541;-80
2023/06/12 06:19:27;;;;;;;13.50;10.13;;;;;;;20.29;56.79;99043.31;5009035;28;20030;-80
2023/06/12 06:21:53;;;;;;;14.07;10.73;;;;;;;20.41;60.33;99049.00;4988082;28;20033;-80
2023/06/12 06:24:18;;;;;;;13.57;10.40;;;;;;;20.57;55.99;99044.03;5008859;28;20038;-80
2023/06/12 06:26:43;;;;;;;16.67;11.13;;;;;;;20.74;55.53;99053.06;5006696;28;20510;-80
2023/06/12 06:29:08;;;;;;;12.88;10.32;;;;;;;20.76;56.00;99053.56;4980797;28;20101;-80
2023/06/12 06:31:34;;;;;;;10.73;9.68;;;;;;;20.77;55.89;99047.00;5012120;28;20121;-80
2023/06/12 06:33:59;;;;;;;11.35;10.25;;;;;;;20.92;55.44;99054.75;5011459;28;20065;-80
2023/06/12 06:36:25;;;;;;;11.07;9.85;;;;;;;20.64;56.32;99055.25;5009951;28;20052;-80
2023/06/12 06:38:51;;;;;;;11.18;9.38;;;;;;;20.64;56.85;99053.31;4978295;28;20124;-80
2023/06/12 06:41:16;;;;;;;10.68;9.52;;;;;;;20.93;55.13;99064.53;4993358;28;20037;-80
2023/06/12 06:43:42;;;;;;;13.82;9.80;;;;;;;20.81;56.66;99063.50;4986449;28;20026;-80
2023/06/12 06:46:07;;;;;;;13.23;10.38;;;;;;;20.74;56.01;99063.13;4975981;28;20038;-80
2023/06/12 06:48:32;;;;;;;12.95;10.90;;;;;;;20.43;60.70;99068.47;5010995;28;20029;-80
2023/06/12 06:50:58;;;;;;;14.75;10.18;;;;;;;20.41;60.88;99068.00;5010457;28;20118;-80
2023/06/12 06:53:23;;;;;;;10.52;9.43;;;;;;;20.93;55.47;99069.13;5012999;28;20041;-79
2023/06/12 06:55:49;;;;;;;12.38;10.82;;;;;;;20.97;56.03;99070.13;5010299;28;20510;-80
2023/06/12 06:58:14;;;;;;;21.27;12.77;;;;;;;19.85;58.62;99068.41;4995625;28;20036;-79
2023/06/12 07:00:40;;;;;;;15.70;11.32;;;;;;;19.64;59.91;99069.09;5011924;28;20034;-79
2023/06/12 07:03:05;;;;;;;13.43;11.02;;;;;;;19.65;60.08;99076.16;5011569;28;20470;-79
2023/06/12 07:05:30;;;;;;;17.75;12.70;;;;;;;19.81;60.79;99064.69;4994247;28;20083;-80
2023/06/12 07:07:56;;;;;;;12.90;10.55;;;;;;;20.60;57.19;99068.59;5013788;28;20057;-80
2023/06/12 07:10:22;;;;;;;16.27;10.88;;;;;;;20.36;57.97;99068.09;5008676;28;20036;-80
2023/06/12 07:12:48;;;;;;;11.55;10.45;;;;;;;20.79;57.86;99069.22;5011502;28;20029;-80
2023/06/12 07:15:13;;;;;;;16.52;12.00;;;;;;;20.77;57.96;99082.28;5010138;28;20390;-80
2023/06/12 07:17:38;;;;;;;14.10;10.30;;;;;;;21.13;55.40;99068.66;5011962;28;20041;-79
2023/06/12 07:20:05;;;;;;;13.77;11.80;;;;;;;20.81;58.67;99075.16;4978115;28;20038;-79
2023/06/12 07:22:30;;;;;;;16.10;10.07;;;;;;;21.16;56.85;99070.75;4977872;28;20026;-80
2023/06/12 07:24:56;;;;;;;14.15;12.20;;;;;;;20.43;59.46;99078.50;4994297;28;20034;-79
2023/06/12 07:27:22;;;;;;;12.85;9.48;;;;;;;20.68;57.87;99078.75;5004051;28;20041;-79
2023/06/12 07:29:47;;;;;;;11.93;10.73;;;;;;;21.20;56.91;99074.44;4988790;28;20038;-80
2023/06/12 07:32:12;;;;;;;12.48;9.95;;;;;;;20.93;57.33;99078.09;5009984;28;20030;-80
2023/06/12 07:34:38;;;;;;;15.38;11.32;;;;;;;20.96;58.39;99078.56;4986795;28;20470;-80
2023/06/12 07:37:04;;;;;;;12.13;10.65;;;;;;;20.98;57.25;99069.03;4991324;28;20073;-80
2023/06/12 07:39:30;;;;;;;15.20;11.77;;;;;;;20.96;58.25;99071.25;5004951;28;20033;-80
2023/06/12 07:41:56;;;;;;;13.70;11.07;;;;;;;21.31;58.10;99072.25;4991811;28;20033;-80
2023/06/12 07:44:22;;;;;;;11.82;9.93;;;;;;;21.71;55.78;99070.31;4993831;28;20034;-79
2023/06/12 07:46:47;;;;;;;13.30;11.85;;;;;;;21.11;57.46;99060.03;5008488;28;20029;-79
2023/06/12 07:49:14;;;;;;;17.50;11.63;;;;;;;20.86;59.66;99068.78;5003892;28;20041;-79
2023/06/12 07:51:40;;;;;;;16.48;10.85;;;;;;;21.03;59.55;99074.34;5011648;28;20092;-80
2023/06/12 07:54:05;;;;;;;16.25;11.88;;;;;;;20.98;59.53;99060.06;5010210;28;20034;-80
2023/06/12 07:56:32;;;;;;;19.52;11.63;;;;;;;21.20;59.43;99060.06;4987855;28;20038;-80
2023/06/12 07:59:12;;;;;;;11.60;9.90;;;;;;;21.54;58.01;99057.47;4991240;28;20026;-80
2023/06/12 08:01:38;;;;;;;15.85;10.70;;;;;;;21.53;58.61;99050.44;5010387;28;20021;-80
2023/06/12 08:04:11;;;;;;;10.55;9.52;;;;;;;21.59;58.85;99051.91;5000691;28;20037;-80
2023/06/12 08:06:38;;;;;;;13.88;11.73;;;;;;;21.60;57.34;99056.22;4993308;28;20022;-80
2023/06/12 08:09:05;;;;;;;12.50;10.02;;;;;;;21.96;56.06;99064.97;5006496;28;20120;-80
2023/06/12 08:11:30;;;;;;;13.52;10.55;;;;;;;21.95;56.88;99055.19;5006811;28;20052;-80
2023/06/12 08:13:57;;;;;;;12.77;10.30;;;;;;;22.04;55.55;99058.75;5007346;28;20061;-80
2023/06/12 08:16:23;;;;;;;12.70;9.73;;;;;;;22.13;57.27;99061.47;4986480;28;20030;-80
2023/06/12 08:18:49;;;;;;;13.45;9.68;;;;;;;21.86;55.86;99051.69;5006453;28;20034;-80
2023/06/12 08:21:14;;;;;;;11.55;10.10;;;;;;;22.70;54.57;99056.69;5003434;28;20772;-80
2023/06/12 08:23:39;;;;;;;10.70;9.60;;;;;;;22.63;54.25;99057.16;5009029;28;20030;-80
2023/06/12 08:26:05;;;;;;;12.88;10.23;;;;;;;22.11;54.61;99047.38;5023500;28;20042;-80
2023/06/12 08:28:33;;;;;;;13.18;9.52;;;;;;;22.61;54.51;99045.00;5005248;28;20059;-80
2023/06/12 08:30:59;;;;;;;10.30;8.60;;;;;;;22.73;53.46;99050.59;5001696;28;20040;-80
2023/06/12 08:33:25;;;;;;;10.02;9.00;;;;;;;22.51;49.74;99042.59;4989054;28;20026;-80
2023/06/12 08:35:50;;;;;;;10.88;8.85;;;;;;;22.49;50.59;99036.69;5010217;28;20124;-80
2023/06/12 08:38:16;;;;;;;12.75;7.57;;;;;;;22.31;47.05;99041.31;5002107;28;20084;-80
2023/06/12 08:41:08;;;;;;;9.38;7.05;;;;;;;22.50;47.75;99033.63;5003013;28;20010;-80
2023/06/12 08:43:35;;;;;;;9.20;7.80;;;;;;;22.90;46.74;99039.69;5011892;28;20049;-80
2023/06/12 08:46:07;;;;;;;7.93;7.13;;;;;;;23.02;48.29;99029.69;4994849;28;20121;-80
2023/06/12 08:48:33;;;;;;;10.45;7.75;;;;;;;22.86;46.02;99041.44;5016111;28;20029;-80
2023/06/12 08:51:01;;;;;;;9.68;7.15;;;;;;;23.02;48.40;99031.66;4976623;28;20057;-80
2023/06/12 08:53:27;;;;;;;7.90;5.97;;;;;;;22.70;44.62;99037.63;4986353;28;20038;-80
2023/06/12 08:55:55;;;;;;;10.93;7.43;;;;;;;23.29;46.26;99033.94;4979483;28;20045;-80
2023/06/12 08:58:20;;;;;;;11.18;7.05;;;;;;;22.74;43.33;99031.22;5011878;28;20093;-80
2023/06/12 09:00:45;;;;;;;9.90;6.40;;;;;;;22.80;44.92;99024.47;5010757;28;20117;-80
2023/06/12 09:03:11;;;;;;;11.40;7.38;;;;;;;23.07;44.94;99021.38;5011840;28;20064;-80
2023/06/12 09:05:39;;;;;;;11.60;6.35;;;;;;;23.37;45.71;99029.63;5012718;28;20371;-80
2023/06/12 09:08:05;;;;;;;11.80;6.78;;;;;;;23.33;44.48;99021.28;5010880;28;20439;-80
2023/06/12 09:10:35;;;;;;;10.93;6.40;;;;;;;23.06;44.86;99016.25;4995336;28;20033;-80
2023/06/12 09:13:06;;;;;;;13.57;7.20;;;;;;;23.70;45.08;99025.91;5011258;28;20107;-80
2023/06/12 09:15:32;;;;;;;7.30;6.60;;;;;;;23.57;43.93;99021.47;5023495;28;20041;-80
2023/06/12 09:17:58;;;;;;;9.95;6.70;;;;;;;23.14;42.40;99015.41;5006262;28;20030;-80
2023/06/12 09:20:24;;;;;;;8.38;6.40;;;;;;;23.29;42.10;99023.03;5009403;28;20120;-80
2023/06/12 09:22:51;;;;;;;9.45;6.20;;;;;;;23.58;41.84;99011.38;5001982;28;20034;-80
2023/06/12 09:25:17;;;;;;;10.52;5.70;;;;;;;23.79;43.65;99026.66;4994503;28;20367;-80
2023/06/12 09:27:44;;;;;;;7.30;5.75;;;;;;;23.96;42.59;99027.69;4989583;28;20034;-80
2023/06/12 09:30:10;;;;;;;8.35;5.72;;;;;;;23.66;43.16;99019.50;4994119;28;20107;-80
2023/06/12 09:32:36;;;;;;;7.75;6.00;;;;;;;23.91;42.55;99020.47;5011488;28;20209;-81
2023/06/12 09:35:03;;;;;;;10.88;5.95;;;;;;;23.45;40.67;99028.78;4994200;28;20062;-80
2023/06/12 09:37:29;;;;;;;6.50;5.88;;;;;;;23.52;40.91;99024.41;5010783;28;20033;-80
2023/06/12 09:40:12;;;;;;;9.00;6.03;;;;;;;23.38;40.88;99029.28;5009935;28;20036;-80
2023/06/12 09:42:40;;;;;;;8.80;5.80;;;;;;;23.25;40.96;99024.03;5005712;28;20501;-80
2023/06/12 09:45:15;;;;;;;9.90;6.07;;;;;;;23.67;40.36;99018.41;5019824;28;20056;-80
2023/06/12 09:47:49;;;;;;;9.95;6.20;;;;;;;23.77;40.23;99014.47;5013321;28;20029;-83
2023/06/12 09:50:16;;;;;;;13.95;6.40;;;;;;;23.73;41.54;99030.69;5010294;28;20389;-82
2023/06/12 09:52:43;;;;;;;8.93;6.40;;;;;;;23.39;40.83;99020.00;4997063;28;20111;-83
2023/06/12 09:55:12;;;;;;;17.08;6.80;;;;;;;23.87;40.04;99016.03;5010736;28;20033;-83
2023/06/12 09:57:41;;;;;;;16.38;8.00;;;;;;;23.81;40.72;99029.84;5012136;28;20444;-83
2023/06/12 10:00:11;;;;;;;9.35;6.22;;;;;;;23.69;40.81;99002.50;5011877;28;20036;-82
2023/06/12 10:02:43;;;;;;;17.88;6.90;;;;;;;23.80;40.79;99019.28;5005422;28;20026;-83
2023/06/12 10:05:22;;;;;;;12.27;6.07;;;;;;;23.44;40.72;99006.16;5016683;28;20025;-83
2023/06/12 10:07:53;;;;;;;8.82;5.30;;;;;;;23.47;41.10;99015.63;5017427;28;20438;-83
2023/06/12 10:10:22;;;;;;;8.15;5.40;;;;;;;24.10;40.73;99025.50;5000727;28;20180;-82
2023/06/12 10:12:48;;;;;;;11.00;5.95;;;;;;;24.50;41.58;99027.44;5015717;28;20160;-83
2023/06/12 10:15:15;;;;;;;11.63;5.95;;;;;;;24.18;39.46;99017.25;5010732;28;20057;-83
2023/06/12 10:17:41;;;;;;;9.38;6.30;;;;;;;24.12;41.36;99031.41;5000099;28;20045;-83
2023/06/12 10:20:09;;;;;;;9.65;6.43;;;;;;;23.57;41.10;99029.66;5032824;28;20033;-82
2023/06/12 10:22:34;;;;;;;6.75;6.05;;;;;;;24.16;41.42;99022.25;5009818;28;20030;-82
2023/06/12 10:25:01;;;;;;;12.32;6.13;;;;;;;23.94;40.96;99013.56;4984634;28;20064;-82
2023/06/12 10:27:26;;;;;;;7.45;6.68;;;;;;;24.09;41.18;99021.97;5014911;28;20628;-82
2023/06/12 10:30:00;;;;;;;10.10;6.10;;;;;;;23.57;41.15;99005.13;5006834;28;20121;-83
2023/06/12 10:32:31;;;;;;;6.57;5.60;;;;;;;24.62;41.79;99006.75;5024721;28;20084;-82
2023/06/12 10:34:57;;;;;;;6.40;5.78;;;;;;;24.10;41.15;98998.22;5005412;28;20026;-82
2023/06/12 10:37:38;;;;;;;8.00;5.88;;;;;;;24.42;41.56;99000.19;4986779;28;20053;-82
2023/06/12 10:40:10;;;;;;;7.07;6.38;;;;;;;24.46;41.30;99004.63;5013993;28;20029;-82
2023/06/12 10:42:39;;;;;;;7.25;6.53;;;;;;;24.09;40.77;99004.81;5009250;28;20022;-82
2023/06/12 10:45:26;;;;;;;7.28;5.75;;;;;;;25.10;41.37;98985.03;5014414;28;20551;-82
2023/06/12 10:48:04;;;;;;;6.50;5.75;;;;;;;25.34;40.81;98992.47;5013089;28;20125;-82
2023/06/12 10:50:30;;;;;;;7.10;6.40;;;;;;;24.77;39.51;98985.09;5012888;28;20069;-83
2023/06/12 10:52:56;;;;;;;7.97;5.30;;;;;;;24.68;40.80;98978.91;5015914;28;20112;-82
2023/06/12 10:55:22;;;;;;;6.95;6.25;;;;;;;24.68;38.70;98987.09;5010082;28;20030;-82
2023/06/12 10:57:52;;;;;;;10.48;5.90;;;;;;;25.68;39.87;98987.34;5010707;28;20018;-82
2023/06/12 11:00:18;;;;;;;5.63;5.13;;;;;;;25.00;40.82;98980.81;5015056;28;20045;-82
2023/06/12 11:02:46;;;;;;;9.70;5.60;;;;;;;24.78;40.07;98970.31;5015462;28;20025;-83
2023/06/12 11:05:11;;;;;;;6.90;5.50;;;;;;;25.55;40.90;98969.34;5004895;28;20481;-83
2023/06/12 11:07:39;;;;;;;7.25;5.82;;;;;;;25.49;39.71;98967.97;5014931;28;20030;-82
2023/06/12 11:10:09;;;;;;;9.27;5.32;;;;;;;25.52;39.37;98947.34;5008938;28;20040;-83
2023/06/12 11:12:34;;;;;;;6.07;5.45;;;;;;;25.73;39.95;98962.47;5009505;28;20034;-83
2023/06/12 11:15:00;;;;;;;9.85;5.47;;;;;;;26.36;38.48;98965.50;5008464;28;20022;-83
2023/06/12 11:17:27;;;;;;;7.43;5.45;;;;;;;26.56;38.30;98957.06;5010293;28;20385;-83
2023/06/12 11:20:00;;;;;;;6.45;5.80;;;;;;;26.74;38.21;98958.34;4996767;28;20030;-83
2023/06/12 11:22:25;;;;;;;8.93;6.18;;;;;;;26.81;36.66;98957.75;4993236;28;20050;-83
2023/06/12 11:24:59;;;;;;;11.10;5.18;;;;;;;26.41;37.65;98954.28;5013428;28;20072;-82